createdAt,value
2019-01-31T00:01:47.749Z,2.60
2019-01-31T00:04:03.834Z,2.60
2019-01-31T00:06:23.539Z,2.50
2019-01-31T00:09:06.848Z,2.50
2019-01-31T00:11:49.976Z,2.40
2019-01-31T00:14:32.738Z,2.30
2019-01-31T00:17:15.471Z,2.20
2019-01-31T00:19:38.464Z,2.20
2019-01-31T00:22:22.382Z,2.20
2019-01-31T00:25:05.224Z,2.30
2019-01-31T00:27:21.594Z,2.30
2019-01-31T00:29:47.490Z,2.30
2019-01-31T00:32:30.309Z,2.30
2019-01-31T00:34:46.198Z,2.20
2019-01-31T00:37:02.829Z,2.20
2019-01-31T00:39:21.051Z,2.20
2019-01-31T00:41:37.230Z,2.30
2019-01-31T00:43:55.763Z,2.20
2019-01-31T00:46:11.859Z,2.30
2019-01-31T00:48:28.263Z,2.30
2019-01-31T00:51:02.210Z,2.40
2019-01-31T00:53:18.948Z,2.30
2019-01-31T00:55:35.750Z,2.30
2019-01-31T00:57:52.452Z,2.30
2019-01-31T01:00:08.609Z,2.30
2019-01-31T01:02:25.584Z,2.30
2019-01-31T01:04:43.567Z,2.40
2019-01-31T01:07:00.453Z,2.40
2019-01-31T01:09:16.604Z,2.40
2019-01-31T01:13:49.652Z,2.40
2019-01-31T01:16:05.947Z,2.40
2019-01-31T01:18:22.677Z,2.50
2019-01-31T01:20:39.074Z,2.50
2019-01-31T01:22:55.677Z,2.50
2019-01-31T01:25:12.290Z,2.50
2019-01-31T01:27:28.744Z,2.40
2019-01-31T01:29:46.371Z,2.50
2019-01-31T01:32:16.616Z,2.50
2019-01-31T01:35:01.226Z,2.50
2019-01-31T01:37:18.961Z,2.40
2019-01-31T01:40:02.121Z,2.40
2019-01-31T01:42:44.887Z,2.30
2019-01-31T01:45:27.660Z,2.40
2019-01-31T01:47:44.268Z,2.30
2019-01-31T01:50:00.733Z,2.30
2019-01-31T01:52:19.060Z,2.10
2019-01-31T01:54:35.669Z,2.00
2019-01-31T01:57:01.324Z,2.20
2019-01-31T01:59:17.612Z,2.30
2019-01-31T02:01:33.777Z,2.30
2019-01-31T02:03:50.076Z,2.20
2019-01-31T02:06:06.878Z,2.20
2019-01-31T02:08:23.293Z,2.20
2019-01-31T02:10:39.383Z,2.20
2019-01-31T02:12:57.987Z,1.90
2019-01-31T02:15:14.317Z,1.70
2019-01-31T02:20:39.839Z,1.70
2019-01-31T02:23:22.701Z,1.50
2019-01-31T02:25:44.842Z,1.90
2019-01-31T02:28:27.684Z,2.40
2019-01-31T02:31:12.443Z,2.80
2019-01-31T02:33:53.921Z,3.00
2019-01-31T02:36:36.660Z,3.10
2019-01-31T02:38:53.082Z,3.20
2019-01-31T02:41:09.321Z,2.90
2019-01-31T02:45:44.679Z,2.40
2019-01-31T02:48:29.819Z,2.00
2019-01-31T02:50:58.240Z,2.20
2019-01-31T02:53:41.024Z,2.10
2019-01-31T02:56:01.648Z,2.20
2019-01-31T02:58:17.885Z,2.40
2019-01-31T03:00:34.111Z,2.40
2019-01-31T03:02:50.642Z,2.50
2019-01-31T03:05:07.677Z,2.60
2019-01-31T03:09:54.932Z,3.00
2019-01-31T03:12:06.383Z,3.00
2019-01-31T03:14:46.265Z,3.00
2019-01-31T03:19:32.487Z,2.90
2019-01-31T03:22:01.055Z,2.80
2019-01-31T03:24:47.095Z,2.90
2019-01-31T03:27:04.365Z,3.00
2019-01-31T03:29:23.023Z,3.10
2019-01-31T03:31:50.023Z,3.00
2019-01-31T03:34:09.300Z,3.10
2019-01-31T03:36:28.076Z,3.10
2019-01-31T03:41:49.003Z,3.30
2019-01-31T03:44:17.719Z,3.30
2019-01-31T03:46:35.531Z,3.30
2019-01-31T03:48:51.884Z,3.30
2019-01-31T03:51:09.624Z,3.40
2019-01-31T03:53:30.162Z,3.30
2019-01-31T03:55:48.751Z,3.10
2019-01-31T03:58:05.806Z,3.10
2019-01-31T04:00:23.427Z,3.00
2019-01-31T04:06:34.696Z,2.80
2019-01-31T04:09:01.352Z,2.70
2019-01-31T04:11:18.557Z,2.60
2019-01-31T04:13:35.569Z,2.60
2019-01-31T04:15:54.677Z,2.40
2019-01-31T04:18:15.669Z,2.40
2019-01-31T04:20:20.325Z,2.30
2019-01-31T04:22:44.140Z,2.10
2019-01-31T04:24:48.861Z,2.20
2019-01-31T04:27:12.745Z,2.10
2019-01-31T04:29:29.226Z,2.00
2019-01-31T04:34:20.286Z,2.10
2019-01-31T04:36:36.804Z,2.20
2019-01-31T04:39:00.703Z,2.10
2019-01-31T04:41:25.329Z,2.10
2019-01-31T04:43:42.123Z,1.90
2019-01-31T04:48:31.307Z,1.90
2019-01-31T04:50:47.431Z,1.90
2019-01-31T04:53:03.588Z,2.00
2019-01-31T04:55:20.181Z,1.90
2019-01-31T04:57:36.339Z,1.80
2019-01-31T04:59:52.793Z,1.80
2019-01-31T05:02:09.438Z,1.90
2019-01-31T05:04:27.628Z,1.90
2019-01-31T05:06:44.489Z,1.90
2019-01-31T05:08:49.162Z,2.00
2019-01-31T05:10:53.820Z,2.00
2019-01-31T05:13:17.498Z,1.90
2019-01-31T05:15:43.813Z,2.00
2019-01-31T05:17:50.151Z,2.00
2019-01-31T05:20:33.771Z,2.10
2019-01-31T05:22:57.394Z,2.10
2019-01-31T05:25:32.429Z,2.00
2019-01-31T05:27:48.950Z,2.10
2019-01-31T05:30:05.099Z,2.10
2019-01-31T05:32:21.308Z,2.20
2019-01-31T05:34:37.896Z,2.10
2019-01-31T05:36:53.842Z,2.10
2019-01-31T05:39:10.667Z,2.00
2019-01-31T05:41:26.760Z,2.00
2019-01-31T05:43:42.735Z,2.10
2019-01-31T05:46:02.204Z,2.10
2019-01-31T05:48:18.518Z,2.10
2019-01-31T05:50:37.988Z,2.10
2019-01-31T05:55:07.942Z,2.10
2019-01-31T05:57:24.375Z,2.10
2019-01-31T05:59:34.465Z,2.20
2019-01-31T06:01:58.349Z,2.30
2019-01-31T06:04:22.004Z,2.30
2019-01-31T06:06:41.022Z,2.40
2019-01-31T06:08:57.209Z,2.50
2019-01-31T06:11:17.804Z,2.40
2019-01-31T06:15:44.929Z,2.40
2019-01-31T06:18:02.515Z,2.40
2019-01-31T06:20:18.379Z,2.40
2019-01-31T06:22:46.401Z,2.50
2019-01-31T06:25:10.029Z,2.40
2019-01-31T06:27:26.762Z,2.30
2019-01-31T06:29:43.487Z,2.20
2019-01-31T06:32:17.370Z,2.10
2019-01-31T06:34:21.961Z,2.00
2019-01-31T06:36:26.484Z,2.10
2019-01-31T06:38:51.959Z,2.00
2019-01-31T06:41:18.670Z,1.90
2019-01-31T06:44:01.360Z,2.00
2019-01-31T06:49:07.359Z,2.20
2019-01-31T06:51:12.029Z,2.10
2019-01-31T06:53:28.646Z,2.10
2019-01-31T06:55:47.061Z,2.10
2019-01-31T06:58:25.674Z,2.20
2019-01-31T07:00:46.213Z,2.30
2019-01-31T07:03:02.609Z,2.30
2019-01-31T07:05:18.940Z,2.50
2019-01-31T07:07:39.341Z,2.70
2019-01-31T07:09:56.369Z,2.70
2019-01-31T07:12:01.034Z,2.90
2019-01-31T07:17:12.629Z,3.30
2019-01-31T07:24:41.100Z,3.70
2019-01-31T07:26:58.576Z,3.70
2019-01-31T07:29:16.592Z,3.70
2019-01-31T07:31:35.775Z,3.80
2019-01-31T07:37:01.242Z,4.00
2019-01-31T07:39:32.040Z,3.90
2019-01-31T07:42:19.247Z,3.90
2019-01-31T07:44:22.177Z,3.70
2019-01-31T07:47:22.897Z,3.40
2019-01-31T07:52:06.503Z,3.80
2019-01-31T07:54:26.661Z,4.10
2019-01-31T07:59:29.707Z,3.90
2019-01-31T08:01:46.367Z,4.40
2019-01-31T08:04:05.028Z,4.70
2019-01-31T08:06:21.221Z,4.80
2019-01-31T08:08:59.173Z,5.00
2019-01-31T08:16:06.721Z,5.30
2019-01-31T08:18:44.904Z,5.20
2019-01-31T08:21:03.284Z,5.10
2019-01-31T08:26:02.905Z,4.90
2019-01-31T08:28:22.068Z,4.40
2019-01-31T08:30:41.795Z,4.40
2019-01-31T08:35:36.387Z,4.20
2019-01-31T08:37:54.298Z,4.20
2019-01-31T08:40:11.597Z,3.70
2019-01-31T08:42:27.522Z,3.60
2019-01-31T08:44:36.966Z,3.60
2019-01-31T08:49:35.986Z,3.90
2019-01-31T08:51:52.262Z,3.80
2019-01-31T08:54:08.703Z,3.80
2019-01-31T08:56:24.664Z,3.90
2019-01-31T08:58:49.168Z,4.20
2019-01-31T09:00:53.748Z,4.20
2019-01-31T09:03:18.456Z,3.70
2019-01-31T09:05:23.197Z,3.60
2019-01-31T09:10:04.803Z,3.50
2019-01-31T09:12:21.657Z,3.40
2019-01-31T09:14:37.614Z,3.30
2019-01-31T09:16:53.916Z,3.30
2019-01-31T09:19:10.055Z,3.50
2019-01-31T09:21:26.444Z,3.30
2019-01-31T09:26:01.967Z,3.60
2019-01-31T09:28:19.472Z,3.60
2019-01-31T09:30:36.334Z,3.80
2019-01-31T09:32:56.672Z,3.90
2019-01-31T09:40:23.510Z,4.20
2019-01-31T09:43:06.323Z,4.40
2019-01-31T09:45:25.617Z,4.40
2019-01-31T09:50:42.475Z,4.30
2019-01-31T09:52:58.793Z,4.30
2019-01-31T09:55:15.068Z,4.50
2019-01-31T09:57:31.360Z,4.40
2019-01-31T09:59:47.571Z,4.30
2019-01-31T10:02:05.073Z,4.20
2019-01-31T10:04:21.462Z,4.30
2019-01-31T10:06:37.706Z,4.60
2019-01-31T10:08:54.186Z,4.60
2019-01-31T10:11:13.768Z,4.80
2019-01-31T10:13:50.253Z,4.70
2019-01-31T10:16:24.737Z,4.50
2019-01-31T10:19:29.559Z,4.60
2019-01-31T10:21:56.737Z,4.80
2019-01-31T10:24:34.740Z,5.00
2019-01-31T10:29:55.256Z,4.80
2019-01-31T10:32:11.531Z,4.90
2019-01-31T10:34:30.825Z,4.70
2019-01-31T10:36:49.889Z,4.60
2019-01-31T10:39:06.676Z,4.40
2019-01-31T10:41:23.067Z,4.70
2019-01-31T10:43:43.202Z,4.80
2019-01-31T10:45:57.174Z,4.90
2019-01-31T10:48:16.185Z,5.20
2019-01-31T10:50:46.286Z,5.40
2019-01-31T10:53:29.972Z,5.70
2019-01-31T10:56:12.758Z,5.60
2019-01-31T10:58:28.808Z,5.70
2019-01-31T11:03:46.944Z,5.80
2019-01-31T11:06:07.637Z,6.00
2019-01-31T11:08:24.529Z,6.20
2019-01-31T11:10:40.825Z,6.20
2019-01-31T11:15:13.289Z,6.10
2019-01-31T11:17:29.665Z,6.10
2019-01-31T11:19:46.742Z,6.20
2019-01-31T11:25:42.996Z,6.20
2019-01-31T11:28:31.847Z,6.20
2019-01-31T11:31:14.544Z,6.20
2019-01-31T11:33:30.778Z,6.20
2019-01-31T11:35:47.167Z,6.20
2019-01-31T11:38:07.227Z,6.10
2019-01-31T11:40:23.859Z,6.10
2019-01-31T11:42:42.964Z,6.20
2019-01-31T11:44:59.003Z,6.20
2019-01-31T11:47:17.450Z,6.30
2019-01-31T11:49:33.774Z,6.30
2019-01-31T11:52:18.109Z,6.30
2019-01-31T12:00:25.997Z,6.50
2019-01-31T12:02:30.659Z,6.40
2019-01-31T12:04:54.703Z,6.30
2019-01-31T12:07:03.449Z,6.40
2019-01-31T12:09:33.004Z,6.50
2019-01-31T12:11:53.465Z,6.30
2019-01-31T12:14:09.692Z,6.30
2019-01-31T12:16:14.339Z,6.40
2019-01-31T12:18:37.974Z,6.40
2019-01-31T12:20:42.568Z,6.40
2019-01-31T12:23:06.373Z,6.30
2019-01-31T12:25:48.903Z,6.30
2019-01-31T12:27:53.515Z,6.20
2019-01-31T12:32:44.273Z,5.80
2019-01-31T12:38:03.395Z,5.70
2019-01-31T12:40:19.975Z,5.60
2019-01-31T12:42:56.849Z,5.60
2019-01-31T12:45:16.125Z,5.80
2019-01-31T12:47:32.344Z,6.00
2019-01-31T12:49:52.705Z,6.10
2019-01-31T12:52:09.412Z,6.30
2019-01-31T12:54:26.102Z,6.30
2019-01-31T12:56:48.054Z,6.40
2019-01-31T12:58:54.890Z,6.60
2019-01-31T13:00:59.101Z,6.70
2019-01-31T13:05:59.700Z,6.60
2019-01-31T13:08:23.288Z,6.70
2019-01-31T13:10:39.520Z,6.60
2019-01-31T13:12:55.610Z,6.70
2019-01-31T13:15:15.660Z,6.60
2019-01-31T13:17:32.435Z,6.70
2019-01-31T13:19:57.950Z,6.70
2019-01-31T13:22:32.556Z,6.80
2019-01-31T13:27:12.171Z,6.90
2019-01-31T13:29:28.339Z,6.90
2019-01-31T13:31:44.338Z,7.00
2019-01-31T13:34:01.065Z,7.10
2019-01-31T13:38:34.128Z,7.00
2019-01-31T13:40:53.790Z,7.00
2019-01-31T13:43:20.571Z,7.10
2019-01-31T13:45:30.977Z,7.10
2019-01-31T13:47:58.431Z,7.10
2019-01-31T13:53:01.502Z,7.00
2019-01-31T13:55:21.313Z,6.90
2019-01-31T14:00:58.588Z,6.80
2019-01-31T14:03:14.787Z,6.70
2019-01-31T14:05:33.883Z,6.70
2019-01-31T14:07:49.979Z,6.70
2019-01-31T14:10:06.308Z,6.80
2019-01-31T14:12:11.131Z,6.80
2019-01-31T14:14:18.310Z,6.80
2019-01-31T14:22:23.523Z,6.80
2019-01-31T14:24:45.973Z,6.90
2019-01-31T14:27:02.597Z,6.90
2019-01-31T14:29:19.356Z,7.00
2019-01-31T14:31:38.317Z,7.00
2019-01-31T14:33:54.920Z,7.00
2019-01-31T14:36:16.089Z,7.00
2019-01-31T14:38:41.923Z,7.00
2019-01-31T14:40:58.087Z,7.10
2019-01-31T14:43:14.730Z,7.10
2019-01-31T14:45:31.266Z,7.00
2019-01-31T14:47:47.670Z,6.80
2019-01-31T14:50:05.018Z,6.90
2019-01-31T14:52:27.977Z,6.80
2019-01-31T15:00:27.005Z,6.80
2019-01-31T15:05:22.523Z,6.60
2019-01-31T15:10:15.995Z,6.60
2019-01-31T15:12:36.418Z,6.40
2019-01-31T15:15:05.077Z,6.40
2019-01-31T15:17:21.738Z,6.40
2019-01-31T15:19:40.441Z,6.30
2019-01-31T15:21:57.034Z,6.40
2019-01-31T15:24:13.558Z,6.50
2019-01-31T15:26:30.305Z,6.50
2019-01-31T15:28:49.650Z,6.40
2019-01-31T15:31:06.100Z,6.40
2019-01-31T15:33:22.547Z,6.40
2019-01-31T15:40:47.194Z,6.20
2019-01-31T15:42:51.820Z,6.30
2019-01-31T15:44:57.454Z,6.40
2019-01-31T15:47:21.089Z,6.30
2019-01-31T15:49:41.276Z,6.20
2019-01-31T15:57:20.333Z,5.90
2019-01-31T15:59:38.863Z,6.00
2019-01-31T16:01:54.998Z,5.80
2019-01-31T16:04:00.920Z,5.90
2019-01-31T16:08:24.074Z,5.90
2019-01-31T16:10:28.690Z,5.80
2019-01-31T16:15:13.212Z,5.90
2019-01-31T16:17:18.617Z,5.90
2019-01-31T16:19:24.193Z,5.70
2019-01-31T16:22:19.276Z,5.80
2019-01-31T16:24:43.306Z,5.80
2019-01-31T16:27:01.931Z,5.70
2019-01-31T16:29:28.579Z,5.70
2019-01-31T16:31:33.231Z,5.60
2019-01-31T16:34:16.464Z,5.60
2019-01-31T16:39:27.658Z,5.40
2019-01-31T16:41:45.479Z,5.30
2019-01-31T16:44:09.099Z,5.20
2019-01-31T16:46:26.613Z,5.20
2019-01-31T16:48:43.272Z,5.10
2019-01-31T16:51:01.701Z,5.00
2019-01-31T16:53:26.017Z,4.90
2019-01-31T16:55:43.116Z,4.80
2019-01-31T17:00:39.166Z,4.60
2019-01-31T17:03:05.257Z,4.50
2019-01-31T17:05:31.626Z,4.40
2019-01-31T17:07:55.390Z,4.40
2019-01-31T17:10:19.063Z,4.30
2019-01-31T17:12:36.410Z,4.20
2019-01-31T17:17:31.808Z,3.70
2019-01-31T17:19:48.223Z,3.60
2019-01-31T17:22:06.556Z,3.50
2019-01-31T17:24:23.084Z,3.50
2019-01-31T17:26:40.051Z,3.30
2019-01-31T17:31:54.910Z,3.20
2019-01-31T17:34:31.543Z,3.20
2019-01-31T17:36:53.298Z,3.20
2019-01-31T17:39:11.980Z,3.40
2019-01-31T17:41:29.217Z,3.40
2019-01-31T17:43:52.632Z,3.40
2019-01-31T17:47:19.266Z,3.50
2019-01-31T17:48:46.319Z,3.50
2019-01-31T17:51:10.526Z,3.60
2019-01-31T17:53:27.197Z,3.50
2019-01-31T17:55:44.047Z,3.50
2019-01-31T17:58:06.081Z,3.50
2019-01-31T18:00:50.639Z,3.40
2019-01-31T18:03:30.944Z,3.40
2019-01-31T18:05:35.429Z,3.30
2019-01-31T18:07:57.390Z,3.30
2019-01-31T18:10:20.816Z,3.10
2019-01-31T18:13:05.919Z,3.00
2019-01-31T18:15:25.082Z,3.00
2019-01-31T18:17:41.793Z,3.00
2019-01-31T18:19:59.564Z,2.90
2019-01-31T18:22:16.023Z,2.60
2019-01-31T18:24:34.439Z,2.70
2019-01-31T18:26:51.688Z,2.70
2019-01-31T18:29:08.310Z,2.70
2019-01-31T18:31:27.898Z,2.50
2019-01-31T18:36:11.994Z,2.40
2019-01-31T18:38:34.506Z,2.40
2019-01-31T18:40:51.127Z,2.30
2019-01-31T18:43:07.439Z,2.20
2019-01-31T18:45:24.112Z,2.10
2019-01-31T18:47:43.833Z,2.10
2019-01-31T18:50:08.893Z,2.10
2019-01-31T18:52:26.427Z,2.00
2019-01-31T18:57:04.365Z,1.90
2019-01-31T18:59:21.610Z,1.90
2019-01-31T19:01:37.823Z,2.10
2019-01-31T19:06:40.545Z,2.20
2019-01-31T19:08:58.010Z,2.20
2019-01-31T19:11:14.733Z,2.00
2019-01-31T19:16:05.641Z,1.70
2019-01-31T19:18:22.511Z,1.70
2019-01-31T19:20:47.893Z,1.60
2019-01-31T19:22:59.663Z,1.40
2019-01-31T19:25:18.354Z,1.40
2019-01-31T19:27:35.249Z,1.40
2019-01-31T19:32:17.170Z,1.60
2019-01-31T19:34:53.408Z,1.70
2019-01-31T19:37:00.228Z,1.90
2019-01-31T19:39:19.032Z,1.80
2019-01-31T19:41:42.454Z,1.80
2019-01-31T19:43:59.350Z,1.90
2019-01-31T19:46:23.113Z,1.70
2019-01-31T19:48:39.918Z,1.60
2019-01-31T19:50:56.431Z,1.50
2019-01-31T19:53:13.050Z,1.40
2019-01-31T19:55:30.591Z,1.40
2019-01-31T19:57:49.367Z,1.40
2019-01-31T20:00:06.222Z,1.40
2019-01-31T20:05:09.378Z,1.50
2019-01-31T20:07:27.790Z,1.40
2019-01-31T20:12:18.373Z,1.20
2019-01-31T20:14:46.693Z,1.40
2019-01-31T20:17:12.479Z,1.40
2019-01-31T20:19:28.664Z,1.60
2019-01-31T20:21:44.704Z,1.60
2019-01-31T20:27:05.959Z,1.70
2019-01-31T20:29:13.589Z,1.70
2019-01-31T20:31:36.795Z,1.70
2019-01-31T20:33:54.908Z,1.60
2019-01-31T20:36:11.408Z,1.70
2019-01-31T20:38:31.327Z,1.70
2019-01-31T20:40:47.200Z,1.70
2019-01-31T20:43:08.156Z,1.60
2019-01-31T20:45:27.239Z,1.60
2019-01-31T20:47:43.396Z,1.70
2019-01-31T20:49:59.815Z,1.70
2019-01-31T20:52:16.396Z,1.60
2019-01-31T20:54:32.629Z,1.60
2019-01-31T20:56:51.035Z,1.50
2019-01-31T20:59:09.267Z,1.70
2019-01-31T21:03:57.785Z,1.80
2019-01-31T21:06:16.603Z,1.80
2019-01-31T21:08:21.464Z,1.80
2019-01-31T21:10:59.161Z,1.80
2019-01-31T21:13:38.794Z,1.80
2019-01-31T21:16:00.616Z,1.80
2019-01-31T21:18:16.845Z,1.80
2019-01-31T21:20:50.991Z,1.80
2019-01-31T21:22:56.351Z,1.90
2019-01-31T21:25:12.431Z,2.00
2019-01-31T21:28:10.678Z,2.10
2019-01-31T21:33:17.784Z,2.20
2019-01-31T21:35:30.807Z,2.20
2019-01-31T21:38:04.890Z,2.30
2019-01-31T21:40:10.469Z,2.20
2019-01-31T21:42:29.847Z,2.10
2019-01-31T21:44:50.203Z,2.10
2019-01-31T21:47:03.173Z,2.00
2019-01-31T21:50:10.863Z,2.10
2019-01-31T21:52:27.110Z,2.20
2019-01-31T21:54:46.549Z,2.20
2019-01-31T21:57:03.183Z,2.20
2019-01-31T21:59:27.943Z,2.10
2019-01-31T22:01:48.312Z,2.20
2019-01-31T22:06:29.625Z,2.20
2019-01-31T22:11:37.623Z,2.20
2019-01-31T22:14:01.580Z,2.10
2019-01-31T22:18:40.210Z,2.00
2019-01-31T22:21:35.980Z,2.00
2019-01-31T22:26:51.200Z,2.10
2019-01-31T22:29:11.623Z,2.10
2019-01-31T22:31:27.947Z,2.10
2019-01-31T22:33:44.307Z,2.10
2019-01-31T22:36:02.790Z,2.10
2019-01-31T22:38:36.508Z,2.20
2019-01-31T22:40:41.649Z,2.40
2019-01-31T22:42:57.849Z,2.30
2019-01-31T22:45:18.434Z,2.20
2019-01-31T22:47:36.555Z,2.30
2019-01-31T22:49:52.874Z,2.40
2019-01-31T22:52:12.757Z,2.50
2019-01-31T22:54:28.900Z,2.60
2019-01-31T22:56:47.818Z,2.70
2019-01-31T22:59:06.792Z,2.70
2019-01-31T23:01:41.912Z,2.90
2019-01-31T23:03:59.004Z,2.90
2019-01-31T23:06:22.690Z,3.00
2019-01-31T23:08:41.278Z,2.90
2019-01-31T23:11:02.083Z,2.90
2019-01-31T23:13:18.445Z,3.00
2019-01-31T23:15:34.733Z,3.10
2019-01-31T23:17:50.865Z,3.10
2019-01-31T23:20:14.753Z,3.30
2019-01-31T23:22:22.604Z,3.30
2019-01-31T23:27:25.694Z,3.10
2019-01-31T23:29:44.974Z,3.10
2019-01-31T23:32:01.178Z,3.00
2019-01-31T23:34:17.342Z,2.90
2019-01-31T23:36:33.966Z,3.00
2019-01-31T23:38:50.434Z,3.10
2019-01-31T23:41:09.695Z,3.10
2019-01-31T23:43:26.308Z,3.10
2019-01-31T23:45:45.196Z,3.10
2019-01-31T23:48:04.647Z,3.10
2019-01-31T23:50:21.206Z,3.10
2019-01-31T23:52:25.917Z,3.10
2019-01-31T23:54:49.671Z,3.20
2019-01-31T23:57:13.388Z,3.10
2019-01-31T23:59:29.711Z,3.20
